createdAt,value
2022-10-13T00:01:38.303Z,2.22
2022-10-13T00:03:34.785Z,2.40
2022-10-13T00:06:49.685Z,3.67
2022-10-13T00:09:36.584Z,2.25
2022-10-13T00:12:23.290Z,2.72
2022-10-13T00:18:27.595Z,2.00
2022-10-13T00:21:53.284Z,4.03
2022-10-13T00:24:27.153Z,1.75
2022-10-13T00:27:23.976Z,4.65
2022-10-13T00:30:13.222Z,4.18
2022-10-13T00:33:19.944Z,4.63
2022-10-13T00:36:15.612Z,4.20
2022-10-13T00:39:25.730Z,4.53
2022-10-13T00:42:34.407Z,5.22
2022-10-13T00:45:22.449Z,7.68
2022-10-13T00:48:33.310Z,6.50
2022-10-13T00:51:10.366Z,7.82
2022-10-13T00:57:24.912Z,5.45
2022-10-13T01:00:12.378Z,3.97
2022-10-13T01:03:02.451Z,3.63
2022-10-13T01:05:47.372Z,5.90
2022-10-13T01:08:33.757Z,5.72
2022-10-13T01:12:06.404Z,5.32
2022-10-13T01:16:36.091Z,3.17
2022-10-13T01:18:27.050Z,4.13
2022-10-13T01:21:37.218Z,4.53
2022-10-13T01:24:59.280Z,3.63
2022-10-13T01:27:58.969Z,4.50
2022-10-13T01:30:50.779Z,6.28
2022-10-13T01:34:29.850Z,5.72
2022-10-13T01:38:14.966Z,4.30
2022-10-13T01:41:47.075Z,4.70
2022-10-13T01:44:53.926Z,3.22
2022-10-13T01:54:24.437Z,3.03
2022-10-13T01:57:23.282Z,2.63
2022-10-13T02:00:23.196Z,3.13
2022-10-13T02:03:46.874Z,2.60
2022-10-13T02:06:57.219Z,4.00
2022-10-13T02:10:18.381Z,6.57
2022-10-13T02:13:32.637Z,3.65
2022-10-13T02:16:31.641Z,4.50
2022-10-13T02:19:57.704Z,2.90
2022-10-13T02:23:28.148Z,2.58
2022-10-13T02:26:33.058Z,4.18
2022-10-13T02:29:33.383Z,4.28
2022-10-13T02:32:39.186Z,4.35
2022-10-13T02:35:33.189Z,6.43
2022-10-13T02:38:27.928Z,4.25
2022-10-13T02:41:15.176Z,4.25
2022-10-13T02:47:05.279Z,3.97
2022-10-13T02:50:08.575Z,5.55
2022-10-13T02:53:13.696Z,2.85
2022-10-13T02:58:53.672Z,4.80
2022-10-13T03:01:59.682Z,3.97
2022-10-13T03:05:02.469Z,5.57
2022-10-13T03:08:24.297Z,3.25
2022-10-13T03:11:21.548Z,2.97
2022-10-13T03:14:32.245Z,4.93
2022-10-13T03:17:11.127Z,3.13
2022-10-13T03:20:01.903Z,5.15
2022-10-13T03:23:09.268Z,4.95
2022-10-13T03:25:54.885Z,2.83
2022-10-13T03:32:26.321Z,4.38
2022-10-13T03:38:43.573Z,6.03
2022-10-13T03:41:24.190Z,3.67
2022-10-13T03:44:29.254Z,3.83
2022-10-13T03:50:38.114Z,5.65
2022-10-13T03:56:47.795Z,4.63
2022-10-13T03:59:46.849Z,3.33
2022-10-13T04:02:33.825Z,4.45
2022-10-13T04:09:11.192Z,3.92
2022-10-13T04:12:10.276Z,4.35
2022-10-13T04:15:11.077Z,7.75
2022-10-13T04:18:23.254Z,4.40
2022-10-13T04:24:42.777Z,6.90
2022-10-13T04:27:24.126Z,4.57
2022-10-13T04:30:24.939Z,4.82
2022-10-13T04:33:24.253Z,4.93
2022-10-13T04:36:36.812Z,4.32
2022-10-13T04:42:13.289Z,6.95
2022-10-13T04:45:11.231Z,5.10
2022-10-13T04:48:08.285Z,8.43
2022-10-13T04:50:48.552Z,4.95
2022-10-13T04:56:36.014Z,5.35
2022-10-13T04:59:19.404Z,4.75
2022-10-13T05:02:15.584Z,5.03
2022-10-13T05:05:14.707Z,5.88
2022-10-13T05:08:24.400Z,5.25
2022-10-13T05:11:18.608Z,5.70
2022-10-13T05:14:33.661Z,5.72
2022-10-13T05:17:34.877Z,4.60
2022-10-13T05:20:55.014Z,4.57
2022-10-13T05:24:17.874Z,6.97
2022-10-13T05:26:51.108Z,6.63
2022-10-13T05:29:20.143Z,4.60
2022-10-13T05:31:48.810Z,8.13
2022-10-13T05:34:20.013Z,9.93
2022-10-13T05:36:48.046Z,8.73
2022-10-13T05:39:33.960Z,7.68
2022-10-13T05:42:04.861Z,6.93
2022-10-13T05:44:36.994Z,5.57
2022-10-13T05:47:12.142Z,5.68
2022-10-13T05:49:47.114Z,7.05
2022-10-13T05:52:27.512Z,6.75
2022-10-13T05:55:03.024Z,4.95
2022-10-13T05:57:54.608Z,6.65
2022-10-13T06:00:31.804Z,7.93
2022-10-13T06:03:29.600Z,6.32
2022-10-13T06:06:14.068Z,6.78
2022-10-13T06:08:50.762Z,7.50
2022-10-13T06:11:34.100Z,7.88
2022-10-13T06:14:19.921Z,6.57
2022-10-13T06:16:51.494Z,10.10
2022-10-13T06:19:25.235Z,6.68
2022-10-13T06:22:25.462Z,7.00
2022-10-13T06:25:13.127Z,6.30
2022-10-13T06:28:01.591Z,8.80
2022-10-13T06:30:59.851Z,9.52
2022-10-13T06:33:38.184Z,10.07
2022-10-13T06:36:07.682Z,5.95
2022-10-13T06:41:33.258Z,9.93
2022-10-13T06:44:04.179Z,5.68
2022-10-13T06:46:39.883Z,8.32
2022-10-13T06:49:18.217Z,7.63
2022-10-13T06:52:02.866Z,9.52
2022-10-13T06:54:41.019Z,7.40
2022-10-13T06:57:15.483Z,10.25
2022-10-13T06:59:46.181Z,8.23
2022-10-13T07:02:18.825Z,10.35
2022-10-13T07:04:54.448Z,10.48
2022-10-13T07:07:48.065Z,9.07
2022-10-13T07:12:50.710Z,9.95
2022-10-13T07:15:24.698Z,9.65
2022-10-13T07:17:57.717Z,9.80
2022-10-13T07:20:33.961Z,9.25
2022-10-13T07:23:01.548Z,13.60
2022-10-13T07:25:28.579Z,11.05
2022-10-13T07:30:26.523Z,11.55
2022-10-13T07:32:58.984Z,7.75
2022-10-13T07:35:30.884Z,24.23
2022-10-13T07:37:58.561Z,10.50
2022-10-13T07:40:48.660Z,13.30
2022-10-13T07:43:27.136Z,16.35
2022-10-13T07:46:21.604Z,12.98
2022-10-13T07:49:05.991Z,13.20
2022-10-13T07:51:39.542Z,12.60
2022-10-13T07:54:11.960Z,13.93
2022-10-13T07:56:42.442Z,15.25
2022-10-13T07:59:24.630Z,17.98
2022-10-13T08:02:02.440Z,14.45
2022-10-13T08:04:50.239Z,16.70
2022-10-13T08:07:22.763Z,12.90
2022-10-13T08:09:53.234Z,13.60
2022-10-13T08:16:53.675Z,14.60
2022-10-13T08:19:52.783Z,11.80
2022-10-13T08:22:27.963Z,11.30
2022-10-13T08:27:56.895Z,13.00
2022-10-13T08:30:54.071Z,11.52
2022-10-13T08:33:55.723Z,13.50
2022-10-13T08:37:00.540Z,14.48
2022-10-13T08:39:47.180Z,20.13
2022-10-13T08:42:38.978Z,12.38
2022-10-13T08:48:18.621Z,17.00
2022-10-13T08:51:04.254Z,15.60
2022-10-13T08:53:52.809Z,13.05
2022-10-13T08:56:39.059Z,10.85
2022-10-13T08:59:38.886Z,10.68
2022-10-13T09:02:50.120Z,14.98
2022-10-13T09:05:42.279Z,11.82
2022-10-13T09:08:32.993Z,12.73
2022-10-13T09:11:05.745Z,18.05
2022-10-13T09:14:00.211Z,14.07
2022-10-13T09:16:51.418Z,14.73
2022-10-13T09:19:39.019Z,19.75
2022-10-13T09:23:02.230Z,13.40
2022-10-13T09:28:45.916Z,16.88
2022-10-13T09:31:31.632Z,13.38
2022-10-13T09:34:57.831Z,17.92
2022-10-13T09:37:33.187Z,13.98
2022-10-13T09:40:34.837Z,15.07
2022-10-13T09:43:19.672Z,14.73
2022-10-13T09:45:59.058Z,14.88
2022-10-13T09:48:52.304Z,19.00
2022-10-13T09:51:46.030Z,12.98
2022-10-13T09:54:52.432Z,12.73
2022-10-13T09:57:47.364Z,11.85
2022-10-13T10:01:08.324Z,15.30
2022-10-13T10:03:41.856Z,13.65
2022-10-13T10:06:22.794Z,13.60
2022-10-13T10:09:55.273Z,14.57
2022-10-13T10:12:27.880Z,13.00
2022-10-13T10:15:31.064Z,14.02
2022-10-13T10:18:40.022Z,17.13
2022-10-13T10:21:40.179Z,16.23
2022-10-13T10:24:37.067Z,16.00
2022-10-13T10:32:04.903Z,9.50
2022-10-13T10:35:00.290Z,15.15
2022-10-13T10:40:59.939Z,17.95
2022-10-13T10:44:03.769Z,16.35
2022-10-13T10:47:25.591Z,14.15
2022-10-13T10:50:14.680Z,11.68
2022-10-13T10:57:02.470Z,14.40
2022-10-13T11:00:14.300Z,13.13
2022-10-13T11:03:11.660Z,16.70
2022-10-13T11:06:13.621Z,14.43
2022-10-13T11:08:59.482Z,11.32
2022-10-13T11:12:02.178Z,15.93
2022-10-13T11:14:43.680Z,12.27
2022-10-13T11:17:19.881Z,13.60
2022-10-13T11:20:42.135Z,11.38
2022-10-13T11:23:27.124Z,16.27
2022-10-13T11:26:26.130Z,12.55
2022-10-13T11:29:28.855Z,15.98
2022-10-13T11:35:46.682Z,13.20
2022-10-13T11:38:37.228Z,18.27
2022-10-13T11:41:32.036Z,13.95
2022-10-13T11:44:38.888Z,18.08
2022-10-13T11:47:58.577Z,14.25
2022-10-13T11:50:50.675Z,12.13
2022-10-13T11:53:47.282Z,10.85
2022-10-13T11:57:03.803Z,13.65
2022-10-13T12:00:10.863Z,18.27
2022-10-13T12:03:00.951Z,14.27
2022-10-13T12:06:21.069Z,11.25
2022-10-13T12:08:43.193Z,10.00
2022-10-13T12:12:19.226Z,9.77
2022-10-13T12:18:36.968Z,7.18
2022-10-13T12:21:26.568Z,9.68
2022-10-13T12:27:57.455Z,10.68
2022-10-13T12:31:06.253Z,12.10
2022-10-13T12:34:31.800Z,10.55
2022-10-13T12:37:30.866Z,11.73
2022-10-13T12:40:39.495Z,12.30
2022-10-13T12:44:16.419Z,16.83
2022-10-13T12:46:59.439Z,13.30
2022-10-13T12:50:37.185Z,14.57
2022-10-13T12:57:45.219Z,9.73
2022-10-13T13:00:47.664Z,12.47
2022-10-13T13:08:20.019Z,10.98
2022-10-13T13:12:10.776Z,11.07
2022-10-13T13:15:48.246Z,12.52
2022-10-13T13:18:07.521Z,19.80
2022-10-13T13:21:21.962Z,15.10
2022-10-13T13:25:02.092Z,11.50
2022-10-13T13:27:46.703Z,8.50
2022-10-13T13:30:30.620Z,12.70
2022-10-13T13:33:05.962Z,12.20
2022-10-13T13:36:02.598Z,12.52
2022-10-13T13:39:34.063Z,9.63
2022-10-13T13:42:57.499Z,9.00
2022-10-13T13:48:41.686Z,9.43
2022-10-13T13:51:43.158Z,11.50
2022-10-13T13:54:32.578Z,10.07
2022-10-13T13:57:17.691Z,9.02
2022-10-13T13:59:48.407Z,9.40
2022-10-13T14:02:32.146Z,9.20
2022-10-13T14:05:12.945Z,13.02
2022-10-13T14:08:21.376Z,15.13
2022-10-13T14:10:55.292Z,12.50
2022-10-13T14:13:52.459Z,10.93
2022-10-13T14:16:31.783Z,10.07
2022-10-13T14:19:11.417Z,13.63
2022-10-13T14:21:49.812Z,9.45
2022-10-13T14:24:31.661Z,9.18
2022-10-13T14:27:19.790Z,11.85
2022-10-13T14:30:18.427Z,11.27
2022-10-13T14:33:13.562Z,9.23
2022-10-13T14:35:43.257Z,8.80
2022-10-13T14:38:23.604Z,10.68
2022-10-13T14:41:10.314Z,10.07
2022-10-13T14:44:37.601Z,13.77
2022-10-13T14:47:22.871Z,9.48
2022-10-13T14:50:13.232Z,9.95
2022-10-13T14:57:04.786Z,7.97
2022-10-13T15:00:11.621Z,8.00
2022-10-13T15:03:27.997Z,9.68
2022-10-13T15:06:39.999Z,11.13
2022-10-13T15:10:06.098Z,10.02
2022-10-13T15:13:43.660Z,11.93
2022-10-13T15:16:36.097Z,7.90
2022-10-13T15:29:29.751Z,10.80
2022-10-13T15:32:13.141Z,14.48
2022-10-13T15:34:43.004Z,12.13
2022-10-13T15:37:17.353Z,10.98
2022-10-13T15:39:57.172Z,10.30
2022-10-13T15:42:37.810Z,10.38
2022-10-13T15:45:25.022Z,13.18
2022-10-13T15:47:58.284Z,12.10
2022-10-13T15:50:32.032Z,7.30
2022-10-13T15:53:15.606Z,6.07
2022-10-13T15:56:15.324Z,8.98
2022-10-13T15:58:41.232Z,12.82
2022-10-13T16:01:22.831Z,7.57
2022-10-13T16:04:01.409Z,6.63
2022-10-13T16:06:41.860Z,8.35
2022-10-13T16:09:38.008Z,10.38
2022-10-13T16:12:39.131Z,7.35
2022-10-13T16:18:53.228Z,6.13
2022-10-13T16:21:27.301Z,11.30
2022-10-13T16:24:04.543Z,8.98
2022-10-13T16:26:37.733Z,6.13
2022-10-13T16:29:07.102Z,13.80
2022-10-13T16:31:46.126Z,12.73
2022-10-13T16:41:27.001Z,11.43
2022-10-13T16:43:58.388Z,10.13
2022-10-13T16:46:40.759Z,7.70
2022-10-13T16:49:37.695Z,7.07
2022-10-13T16:52:34.938Z,5.93
2022-10-13T16:55:22.797Z,9.27
2022-10-13T17:01:18.728Z,6.95
2022-10-13T17:03:59.038Z,7.40
2022-10-13T17:06:48.764Z,7.30
2022-10-13T17:12:47.613Z,11.02
2022-10-13T17:15:50.195Z,9.52
2022-10-13T17:18:51.523Z,9.27
2022-10-13T17:28:19.411Z,6.70
2022-10-13T17:34:44.312Z,8.13
